Time;durP1;ratioP1;P1;durP2;ratioP2;P2;SDS_P1;SDS_P2;PMS_P1;PMS_P2;Temp;Humidity;BMP_temperature;BMP_pressure;BME280_temperature;BME280_humidity;BME280_pressure;Samples;Min_cycle;Max_cycle;Signal;HPM_P1;HPM_P2
2021/08/08 00:01:34;;;;;;;0.70;0.30;;;15.60;99.90;;;;;;5008632;28;20053;-93
2021/08/08 00:04:04;;;;;;;1.10;0.25;;;15.60;99.90;;;;;;4993028;28;20117;-94
2021/08/08 00:06:30;;;;;;;1.17;0.40;;;15.70;99.90;;;;;;5009382;28;20592;-95
2021/08/08 00:08:55;;;;;;;1.83;0.40;;;15.60;99.90;;;;;;5008353;28;20030;-91
2021/08/08 00:11:21;;;;;;;2.17;0.52;;;15.60;99.90;;;;;;5008632;28;20034;-93
2021/08/08 00:13:47;;;;;;;2.97;0.77;;;15.60;99.90;;;;;;5008528;28;20069;-94
2021/08/08 00:16:14;;;;;;;3.15;0.70;;;15.60;99.90;;;;;;5015506;28;20017;-94
2021/08/08 00:18:42;;;;;;;1.45;0.60;;;15.60;99.90;;;;;;5028379;28;20039;-95
2021/08/08 00:21:07;;;;;;;2.65;0.70;;;15.60;99.90;;;;;;5027894;28;20496;-92
2021/08/08 00:23:33;;;;;;;3.53;0.60;;;15.60;99.90;;;;;;5011571;28;20034;-93
2021/08/08 00:25:59;;;;;;;2.63;0.70;;;15.60;99.90;;;;;;5045811;28;20041;-92
2021/08/08 00:28:24;;;;;;;2.15;0.80;;;15.60;99.90;;;;;;5068853;28;20039;-93
2021/08/08 00:30:50;;;;;;;3.65;0.75;;;15.60;99.90;;;;;;5068634;28;20032;-92
2021/08/08 00:33:17;;;;;;;2.50;0.90;;;15.60;99.90;;;;;;5085738;28;20047;-92
2021/08/08 00:35:47;;;;;;;1.83;0.90;;;15.60;99.90;;;;;;5069224;28;20029;-94
2021/08/08 00:38:14;;;;;;;1.95;0.88;;;15.60;99.90;;;;;;5069299;28;20025;-90
2021/08/08 00:40:40;;;;;;;2.17;0.68;;;15.60;99.90;;;;;;5068669;28;20073;-94
2021/08/08 00:43:10;;;;;;;2.67;0.63;;;15.60;99.90;;;;;;5068628;28;20028;-93
2021/08/08 00:45:38;;;;;;;2.95;0.60;;;15.60;99.90;;;;;;5069130;28;20052;-91
2021/08/08 00:48:08;;;;;;;2.47;0.60;;;15.60;99.90;;;;;;5069427;28;20012;-93
2021/08/08 00:50:38;;;;;;;2.35;0.70;;;15.60;99.90;;;;;;5069077;28;20040;-96
2021/08/08 00:53:07;;;;;;;1.55;0.90;;;15.50;99.90;;;;;;5085743;28;20052;-93
2021/08/08 00:55:35;;;;;;;2.63;0.68;;;15.60;99.90;;;;;;5069215;28;20508;-96
2021/08/08 00:58:01;;;;;;;3.72;0.80;;;15.60;99.90;;;;;;5069362;28;20032;-95
2021/08/08 01:00:29;;;;;;;2.50;0.70;;;15.60;99.90;;;;;;5085458;28;20429;-95
2021/08/08 01:03:01;;;;;;;2.50;0.70;;;15.60;99.90;;;;;;5069614;28;20021;-93
2021/08/08 01:05:49;;;;;;;2.25;0.75;;;15.60;99.90;;;;;;5103839;28;20052;-95
2021/08/08 01:08:27;;;;;;;1.83;0.65;;;15.60;99.90;;;;;;5087144;28;20032;-96
2021/08/08 01:10:55;;;;;;;3.78;1.17;;;15.60;99.90;;;;;;5068766;28;20033;-95
2021/08/08 01:13:22;;;;;;;4.95;1.38;;;15.50;99.90;;;;;;5067993;28;20025;-91
2021/08/08 01:15:49;;;;;;;4.00;1.20;;;15.50;99.90;;;;;;5071220;28;20032;-92
2021/08/08 01:18:17;;;;;;;4.18;1.10;;;15.50;99.90;;;;;;5088482;28;20077;-92
2021/08/08 01:20:48;;;;;;;2.70;1.38;;;15.40;99.90;;;;;;5088071;28;20032;-91
2021/08/08 01:23:15;;;;;;;2.63;1.10;;;15.50;99.90;;;;;;5109346;28;20032;-92
2021/08/08 01:25:44;;;;;;;3.20;1.05;;;15.40;99.90;;;;;;5092769;28;20032;-92
2021/08/08 01:28:11;;;;;;;4.25;1.25;;;15.40;99.90;;;;;;5092940;28;20093;-96
2021/08/08 01:30:40;;;;;;;3.08;1.13;;;15.40;99.90;;;;;;5092742;28;20038;-92
2021/08/08 01:33:12;;;;;;;4.25;0.93;;;15.40;99.90;;;;;;5092594;28;20028;-91
2021/08/08 01:35:43;;;;;;;2.08;0.95;;;15.40;99.90;;;;;;5092717;28;20036;-90
2021/08/08 01:38:10;;;;;;;4.32;1.23;;;15.40;99.90;;;;;;5092252;28;20020;-93
2021/08/08 01:41:03;;;;;;;5.07;1.52;;;15.40;99.90;;;;;;5092120;28;20047;-91
2021/08/08 01:43:38;;;;;;;4.63;1.27;;;15.40;99.90;;;;;;5094748;28;20032;-92
2021/08/08 01:46:05;;;;;;;;;;;15.40;99.90;;;;;;5093880;28;20073;-93
2021/08/08 01:48:45;;;;;;;4.40;1.85;;;15.30;99.90;;;;;;5058350;23;19928;-91
2021/08/08 01:51:12;;;;;;;4.43;1.63;;;15.40;99.90;;;;;;5009218;28;20050;-92
2021/08/08 01:53:39;;;;;;;4.60;1.90;;;15.40;99.90;;;;;;5009771;28;20045;-94
2021/08/08 01:56:06;;;;;;;7.32;2.22;;;15.40;99.90;;;;;;5073944;23;20505;-95
2021/08/08 01:58:35;;;;;;;5.35;1.58;;;15.40;99.90;;;;;;5012030;28;20478;-90
2021/08/08 02:01:05;;;;;;;6.40;2.30;;;15.40;99.90;;;;;;5012499;28;20061;-93
2021/08/08 02:03:36;;;;;;;5.25;2.25;;;15.40;99.90;;;;;;5012278;28;20076;-91
2021/08/08 02:06:05;;;;;;;5.43;2.15;;;15.40;99.90;;;;;;5028722;28;20058;-94
2021/08/08 02:08:31;;;;;;;5.68;2.10;;;15.40;99.90;;;;;;5011791;28;20021;-89
2021/08/08 02:11:07;;;;;;;7.97;3.22;;;15.40;99.90;;;;;;5013537;28;20117;-95
2021/08/08 02:13:49;;;;;;;5.25;1.83;;;15.30;99.90;;;;;;5016751;28;20137;-94
2021/08/08 02:16:14;;;;;;;7.70;2.58;;;15.40;99.90;;;;;;5013723;28;20026;-92
2021/08/08 02:18:40;;;;;;;4.97;1.73;;;15.30;99.90;;;;;;5012939;28;20026;-95
2021/08/08 02:21:08;;;;;;;6.57;1.95;;;15.30;99.90;;;;;;5012411;28;20060;-93
2021/08/08 02:23:34;;;;;;;5.20;2.05;;;15.40;99.90;;;;;;5013640;28;20064;-94
2021/08/08 02:26:02;;;;;;;6.22;2.22;;;15.30;99.90;;;;;;5028330;28;20034;-93
2021/08/08 02:28:30;;;;;;;6.55;1.95;;;15.30;99.90;;;;;;5028335;28;20034;-92
2021/08/08 02:30:56;;;;;;;7.28;2.97;;;15.30;99.90;;;;;;5029090;28;20045;-94
2021/08/08 02:33:25;;;;;;;6.90;2.90;;;15.20;99.90;;;;;;5031153;28;20029;-91
2021/08/08 02:35:51;;;;;;;9.70;2.35;;;15.30;99.90;;;;;;5029004;28;20033;-95
2021/08/08 02:38:18;;;;;;;5.50;2.40;;;15.30;99.90;;;;;;5027919;28;20030;-93
2021/08/08 02:40:47;;;;;;;5.82;2.15;;;15.30;99.90;;;;;;5027969;28;20046;-91
2021/08/08 02:43:15;;;;;;;7.10;2.33;;;15.30;99.90;;;;;;5027797;28;20057;-93
2021/08/08 02:45:40;;;;;;;10.20;2.85;;;15.30;99.90;;;;;;5011226;28;20034;-90
2021/08/08 02:48:09;;;;;;;7.57;2.47;;;15.30;99.90;;;;;;5027998;28;20030;-91
2021/08/08 02:50:35;;;;;;;8.55;2.25;;;15.30;99.90;;;;;;5027847;28;20124;-94
2021/08/08 02:53:00;;;;;;;10.77;3.10;;;15.30;99.90;;;;;;5011564;28;20076;-91
2021/08/08 02:55:26;;;;;;;12.60;2.17;;;15.30;99.90;;;;;;5027229;28;20242;-89
2021/08/08 02:57:57;;;;;;;6.70;3.08;;;15.30;99.90;;;;;;5027264;28;20033;-90
2021/08/08 03:00:23;;;;;;;7.15;3.15;;;15.30;99.90;;;;;;5026987;28;20042;-90
2021/08/08 03:02:48;;;;;;;6.88;2.35;;;15.30;99.90;;;;;;5027128;28;20021;-89
2021/08/08 03:05:14;;;;;;;8.85;2.17;;;15.30;99.90;;;;;;5027117;28;20053;-91
2021/08/08 03:07:40;;;;;;;8.27;2.78;;;15.30;99.90;;;;;;5010390;28;20459;-87
2021/08/08 03:10:07;;;;;;;9.65;2.28;;;15.30;99.90;;;;;;5010503;28;20032;-93
2021/08/08 03:12:33;;;;;;;11.65;2.17;;;15.30;99.90;;;;;;5010463;28;20101;-91
2021/08/08 03:14:59;;;;;;;9.93;1.98;;;15.30;99.90;;;;;;5026910;28;20030;-87
2021/08/08 03:17:25;;;;;;;8.60;2.42;;;15.30;99.90;;;;;;5026609;28;20072;-90
2021/08/08 03:19:51;;;;;;;7.53;2.03;;;15.30;99.90;;;;;;5026580;28;20042;-91
2021/08/08 03:22:17;;;;;;;7.75;1.90;;;15.30;99.90;;;;;;5026565;28;20084;-88
2021/08/08 03:24:43;;;;;;;6.53;1.88;;;15.30;99.90;;;;;;5026736;28;20053;-90
2021/08/08 03:27:09;;;;;;;9.10;2.38;;;15.30;99.90;;;;;;5026609;28;20022;-92
2021/08/08 03:29:37;;;;;;;6.32;2.15;;;15.30;99.90;;;;;;5026668;28;20026;-90
2021/08/08 03:32:04;;;;;;;7.65;1.92;;;15.30;99.90;;;;;;5026933;28;20445;-91
2021/08/08 03:34:30;;;;;;;13.95;2.78;;;15.30;99.90;;;;;;5010644;28;20037;-93
2021/08/08 03:36:57;;;;;;;11.07;2.45;;;15.30;99.90;;;;;;5026460;28;20461;-91
2021/08/08 03:39:25;;;;;;;6.57;1.23;;;15.30;99.90;;;;;;5026728;28;20026;-92
2021/08/08 03:41:55;;;;;;;13.23;2.60;;;15.20;99.90;;;;;;5010275;28;20112;-92
2021/08/08 03:44:21;;;;;;;9.85;2.13;;;15.30;99.90;;;;;;5009259;28;20042;-94
2021/08/08 03:47:08;;;;;;;7.55;1.80;;;15.20;99.90;;;;;;5026474;28;20025;-90
2021/08/08 03:49:34;;;;;;;13.25;2.28;;;15.30;99.90;;;;;;4963637;28;20043;-94
2021/08/08 03:52:00;;;;;;;8.98;2.22;;;15.30;99.90;;;;;;4931661;29;20039;-95
2021/08/08 03:54:27;;;;;;;6.88;1.35;;;15.20;99.90;;;;;;4931626;29;21258;-91
2021/08/08 03:56:53;;;;;;;5.45;1.73;;;15.20;99.90;;;;;;4948390;29;20035;-93
2021/08/08 03:59:19;;;;;;;7.93;1.63;;;15.20;99.90;;;;;;4947700;29;20024;-94
2021/08/08 04:01:45;;;;;;;11.02;1.73;;;15.20;99.90;;;;;;4932030;29;20040;-92
2021/08/08 04:04:12;;;;;;;8.07;1.85;;;15.20;99.90;;;;;;4932147;29;20063;-91
2021/08/08 04:06:37;;;;;;;7.18;1.73;;;15.20;99.90;;;;;;4931337;29;20043;-90
2021/08/08 04:09:04;;;;;;;9.38;1.50;;;15.20;99.90;;;;;;4931023;29;20043;-91
2021/08/08 04:11:30;;;;;;;6.72;1.13;;;15.20;99.90;;;;;;4931409;29;20031;-92
2021/08/08 04:13:56;;;;;;;10.90;1.52;;;15.20;99.90;;;;;;4931256;29;20049;-91
2021/08/08 04:16:22;;;;;;;7.25;1.83;;;15.10;99.90;;;;;;4945437;28;20110;-89
2021/08/08 04:18:48;;;;;;;5.35;2.10;;;15.10;99.90;;;;;;4969619;28;20042;-91
2021/08/08 04:21:14;;;;;;;12.88;2.15;;;15.10;99.90;;;;;;4969297;28;20047;-93
2021/08/08 04:23:41;;;;;;;7.03;1.30;;;15.10;99.90;;;;;;4969121;28;20086;-92
2021/08/08 04:26:07;;;;;;;9.38;2.33;;;15.10;99.90;;;;;;4977883;28;20046;-92
2021/08/08 04:28:39;;;;;;;8.02;2.08;;;15.10;99.90;;;;;;4989751;28;20368;-92
2021/08/08 04:31:08;;;;;;;7.97;1.60;;;15.10;99.90;;;;;;5005839;28;20030;-91
2021/08/08 04:33:35;;;;;;;;;;;15.10;99.90;;;;;;4990175;28;20049;-88
2021/08/08 04:36:01;;;;;;;11.52;2.05;;;15.10;99.90;;;;;;5005933;28;20293;-95
2021/08/08 04:38:27;;;;;;;8.95;2.00;;;15.00;99.90;;;;;;4989439;28;20030;-94
2021/08/08 04:40:53;;;;;;;8.27;1.85;;;15.00;99.90;;;;;;4989228;28;20106;-92
2021/08/08 04:43:19;;;;;;;8.60;2.53;;;15.00;99.90;;;;;;4989221;28;20027;-91
2021/08/08 04:45:45;;;;;;;15.40;2.47;;;15.10;99.90;;;;;;4988900;28;20410;-91
2021/08/08 04:48:10;;;;;;;8.90;2.00;;;15.10;99.90;;;;;;4992072;28;20173;-93
2021/08/08 04:50:37;;;;;;;6.75;1.80;;;15.20;99.90;;;;;;5024762;28;20038;-93
2021/08/08 04:53:03;;;;;;;13.52;2.05;;;15.20;99.90;;;;;;5024947;28;20026;-91
2021/08/08 04:55:30;;;;;;;7.35;1.45;;;15.20;99.90;;;;;;5024328;28;20080;-94
2021/08/08 04:57:56;;;;;;;8.68;1.83;;;15.20;99.90;;;;;;5024648;28;20026;-90
2021/08/08 05:00:22;;;;;;;13.23;1.95;;;15.20;99.90;;;;;;5024260;28;20255;-93
2021/08/08 05:02:49;;;;;;;13.32;2.17;;;15.20;99.90;;;;;;5024565;28;20033;-93
2021/08/08 05:05:16;;;;;;;8.30;1.67;;;15.30;99.90;;;;;;5008274;28;20026;-91
2021/08/08 05:07:44;;;;;;;9.10;2.20;;;15.20;99.90;;;;;;5008519;28;20552;-92
2021/08/08 05:10:13;;;;;;;10.93;2.00;;;15.30;99.90;;;;;;5024280;28;20026;-91
2021/08/08 05:12:41;;;;;;;9.48;2.10;;;15.30;99.90;;;;;;5008174;28;20053;-89
2021/08/08 05:15:07;;;;;;;8.65;1.75;;;15.30;99.90;;;;;;5024367;28;20037;-91
2021/08/08 05:17:33;;;;;;;10.55;1.55;;;15.40;99.90;;;;;;5004540;28;20054;-91
2021/08/08 05:20:00;;;;;;;11.43;1.80;;;15.40;99.90;;;;;;5004447;28;20034;-91
2021/08/08 05:22:26;;;;;;;13.75;3.90;;;15.50;99.90;;;;;;5004848;28;20037;-93
2021/08/08 05:24:53;;;;;;;6.40;1.17;;;15.40;99.90;;;;;;5004472;28;20039;-91
2021/08/08 05:27:19;;;;;;;6.30;1.50;;;15.50;99.90;;;;;;5021138;28;20582;-91
2021/08/08 05:29:44;;;;;;;7.53;1.85;;;15.50;99.90;;;;;;5004784;28;20038;-92
2021/08/08 05:32:10;;;;;;;10.88;2.15;;;15.50;99.90;;;;;;5004402;28;20034;-92
2021/08/08 05:34:36;;;;;;;9.88;1.90;;;15.50;99.90;;;;;;5004494;28;20030;-89
2021/08/08 05:37:03;;;;;;;9.35;1.95;;;15.60;99.90;;;;;;5004474;28;20037;-88
2021/08/08 05:39:30;;;;;;;9.55;1.83;;;15.50;99.90;;;;;;5004352;28;20026;-91
2021/08/08 05:41:56;;;;;;;9.70;1.50;;;15.60;99.90;;;;;;5004578;28;20030;-91
2021/08/08 05:44:21;;;;;;;7.15;1.23;;;15.70;99.90;;;;;;5004317;28;20027;-88
2021/08/08 05:47:07;;;;;;;7.13;1.15;;;15.70;99.90;;;;;;5004224;28;20130;-86
2021/08/08 05:49:34;;;;;;;10.20;2.22;;;15.90;99.90;;;;;;4930650;29;20069;-87
2021/08/08 05:52:01;;;;;;;7.55;1.35;;;16.00;99.90;;;;;;4926437;29;20044;-91
2021/08/08 05:54:28;;;;;;;16.63;2.53;;;16.00;99.90;;;;;;4926064;29;20036;-89
2021/08/08 05:56:54;;;;;;;8.45;1.65;;;15.90;99.90;;;;;;4937831;29;20031;-86
2021/08/08 05:59:20;;;;;;;9.63;1.90;;;15.90;99.90;;;;;;4929038;29;20055;-86
2021/08/08 06:01:46;;;;;;;8.98;1.00;;;16.00;99.90;;;;;;4914600;29;20047;-85
2021/08/08 06:04:12;;;;;;;11.07;1.52;;;16.10;99.90;;;;;;4913156;29;20087;-84
2021/08/08 06:06:37;;;;;;;8.98;1.42;;;16.10;99.90;;;;;;4912955;29;20052;-85
2021/08/08 06:09:03;;;;;;;13.63;2.17;;;16.10;99.90;;;;;;4916402;29;20682;-86
2021/08/08 06:11:30;;;;;;;11.90;1.98;;;16.20;99.90;;;;;;4916419;29;20323;-85
2021/08/08 06:13:56;;;;;;;11.95;1.40;;;16.40;99.90;;;;;;4948676;29;20123;-88
2021/08/08 06:16:21;;;;;;;12.55;1.95;;;16.60;99.90;;;;;;4932354;29;20042;-87
2021/08/08 06:18:48;;;;;;;10.10;1.40;;;16.40;99.90;;;;;;4947736;29;20035;-87
2021/08/08 06:21:13;;;;;;;9.55;1.27;;;16.40;99.90;;;;;;4932060;29;20551;-87
2021/08/08 06:23:46;;;;;;;6.85;1.23;;;16.30;99.90;;;;;;4946986;29;20077;-85
2021/08/08 06:26:12;;;;;;;5.47;1.58;;;16.30;99.90;;;;;;4953689;28;20042;-84
2021/08/08 06:28:37;;;;;;;9.20;1.88;;;16.30;99.90;;;;;;4990715;28;20041;-85
2021/08/08 06:31:07;;;;;;;9.70;1.40;;;16.20;99.90;;;;;;4991210;28;20061;-86
2021/08/08 06:33:33;;;;;;;10.43;1.05;;;16.20;99.90;;;;;;5006895;28;20036;-86
2021/08/08 06:35:59;;;;;;;9.73;1.30;;;16.30;99.90;;;;;;4990699;28;20058;-87
2021/08/08 06:38:25;;;;;;;7.75;1.95;;;16.20;99.90;;;;;;5006958;28;20022;-86
2021/08/08 06:40:50;;;;;;;7.05;1.45;;;16.20;99.90;;;;;;4990359;28;20482;-85
2021/08/08 06:43:17;;;;;;;9.48;1.10;;;16.30;99.90;;;;;;4990611;28;20037;-86
2021/08/08 06:45:45;;;;;;;6.00;1.17;;;16.60;99.90;;;;;;4997599;28;20029;-86
2021/08/08 06:48:11;;;;;;;10.23;1.17;;;16.70;99.90;;;;;;5007871;28;20030;-88
2021/08/08 06:50:38;;;;;;;10.25;2.13;;;16.60;99.90;;;;;;5009695;28;20034;-84
2021/08/08 06:53:04;;;;;;;8.07;1.42;;;16.60;99.90;;;;;;5010189;28;20030;-86
2021/08/08 06:55:30;;;;;;;9.35;1.17;;;16.60;99.90;;;;;;5009367;28;20109;-85
2021/08/08 06:57:56;;;;;;;7.82;1.33;;;16.60;99.90;;;;;;5009868;28;20022;-87
2021/08/08 07:00:22;;;;;;;5.68;0.95;;;16.60;99.90;;;;;;5009981;28;20052;-88
2021/08/08 07:02:50;;;;;;;8.80;1.55;;;16.70;99.90;;;;;;5010175;28;20034;-87
2021/08/08 07:05:17;;;;;;;7.60;1.17;;;16.70;99.90;;;;;;5010013;28;20080;-85
2021/08/08 07:07:43;;;;;;;10.75;1.60;;;16.70;99.90;;;;;;5006824;28;20029;-89
2021/08/08 07:10:10;;;;;;;9.93;1.60;;;16.80;99.90;;;;;;4999939;28;20026;-83
2021/08/08 07:12:37;;;;;;;9.43;1.17;;;16.60;99.90;;;;;;5003907;28;20030;-84
2021/08/08 07:15:05;;;;;;;6.38;1.42;;;16.60;99.90;;;;;;5009671;28;20042;-83
2021/08/08 07:17:31;;;;;;;11.18;1.50;;;16.50;99.90;;;;;;5008682;28;20026;-84
2021/08/08 07:19:57;;;;;;;11.50;1.42;;;16.60;99.90;;;;;;5005961;28;20038;-86
2021/08/08 07:22:22;;;;;;;7.22;1.00;;;16.60;99.90;;;;;;4990054;28;20033;-85
2021/08/08 07:24:51;;;;;;;8.65;1.20;;;16.60;99.90;;;;;;4989673;28;20386;-84
2021/08/08 07:27:19;;;;;;;11.68;1.30;;;16.50;99.90;;;;;;5005816;28;20405;-83
2021/08/08 07:29:46;;;;;;;6.85;1.67;;;16.50;99.90;;;;;;5018969;28;20493;-82
2021/08/08 07:32:12;;;;;;;5.95;1.27;;;16.70;99.90;;;;;;5025693;28;20043;-84
2021/08/08 07:34:39;;;;;;;9.80;1.27;;;16.70;99.90;;;;;;5009437;28;20033;-84
2021/08/08 07:37:05;;;;;;;7.22;1.13;;;16.60;99.90;;;;;;5009412;28;20030;-83
2021/08/08 07:39:34;;;;;;;5.53;0.80;;;16.90;99.90;;;;;;5009500;28;20026;-83
2021/08/08 07:42:00;;;;;;;9.27;1.40;;;17.10;99.90;;;;;;5009373;28;20053;-84
2021/08/08 07:44:25;;;;;;;5.00;1.10;;;17.10;99.90;;;;;;5009342;28;20029;-83
2021/08/08 07:47:15;;;;;;;6.38;1.35;;;17.20;99.90;;;;;;5025187;28;20105;-83
2021/08/08 07:49:42;;;;;;;9.20;1.48;;;17.40;99.90;;;;;;4942417;29;20055;-82
2021/08/08 07:52:09;;;;;;;12.93;2.15;;;17.30;99.90;;;;;;4930230;29;20043;-81
2021/08/08 07:54:35;;;;;;;6.13;0.90;;;17.40;99.90;;;;;;4943088;29;20043;-81
2021/08/08 07:57:00;;;;;;;7.57;1.02;;;17.80;99.90;;;;;;4915865;29;20056;-82
2021/08/08 07:59:26;;;;;;;7.05;0.82;;;17.80;99.90;;;;;;4913981;29;20035;-81
2021/08/08 08:01:52;;;;;;;5.78;1.00;;;17.90;99.90;;;;;;4914343;29;20047;-83
2021/08/08 08:04:21;;;;;;;6.95;0.98;;;18.10;99.90;;;;;;4925414;29;20032;-82
2021/08/08 08:06:46;;;;;;;7.32;0.68;;;17.90;99.90;;;;;;4930158;29;20095;-84
2021/08/08 08:09:15;;;;;;;14.45;1.17;;;17.70;99.90;;;;;;4927866;29;20051;-84
2021/08/08 08:11:42;;;;;;;10.63;1.33;;;17.20;99.90;;;;;;4932895;29;20036;-82
2021/08/08 08:14:09;;;;;;;8.70;0.93;;;17.30;99.90;;;;;;4927396;29;20075;-83
2021/08/08 08:16:35;;;;;;;7.13;0.95;;;17.60;99.90;;;;;;4927576;29;20043;-83
2021/08/08 08:19:01;;;;;;;7.05;0.90;;;17.40;99.90;;;;;;4913933;29;20039;-85
2021/08/08 08:21:27;;;;;;;8.40;1.10;;;17.60;99.90;;;;;;4943262;29;20059;-82
2021/08/08 08:23:53;;;;;;;6.07;0.68;;;18.00;99.90;;;;;;4929955;29;20047;-84
2021/08/08 08:26:19;;;;;;;9.15;1.38;;;18.30;99.90;;;;;;4942907;28;20041;-82
2021/08/08 08:28:44;;;;;;;6.80;0.85;;;18.50;99.90;;;;;;5023084;28;20029;-83
2021/08/08 08:31:10;;;;;;;5.30;0.65;;;18.30;99.90;;;;;;5007513;28;20030;-83
2021/08/08 08:33:37;;;;;;;7.07;1.00;;;18.60;99.90;;;;;;5007860;28;20467;-81
2021/08/08 08:36:04;;;;;;;9.60;0.82;;;18.30;99.90;;;;;;5024232;28;20550;-85
2021/08/08 08:38:30;;;;;;;6.85;0.85;;;18.30;99.90;;;;;;5007687;28;20034;-85
2021/08/08 08:41:03;;;;;;;7.40;1.13;;;18.00;99.90;;;;;;5007971;28;20095;-83
2021/08/08 08:43:30;;;;;;;8.25;1.00;;;18.20;99.90;;;;;;5023968;28;20026;-84
2021/08/08 08:45:57;;;;;;;9.57;1.23;;;18.00;99.90;;;;;;5007737;28;20385;-82
2021/08/08 08:48:24;;;;;;;5.68;0.70;;;17.90;99.90;;;;;;5007394;28;20039;-84
2021/08/08 08:50:54;;;;;;;5.75;0.65;;;18.10;99.90;;;;;;5008091;28;20192;-84
2021/08/08 08:53:22;;;;;;;7.03;0.85;;;18.60;99.90;;;;;;5007388;28;20040;-82
2021/08/08 08:55:50;;;;;;;4.75;0.50;;;18.40;99.90;;;;;;5023563;28;20118;-83
2021/08/08 08:58:17;;;;;;;5.05;0.63;;;18.60;99.90;;;;;;5006836;28;20082;-86
2021/08/08 09:00:43;;;;;;;6.30;1.23;;;18.80;99.90;;;;;;5007413;28;20179;-82
2021/08/08 09:03:10;;;;;;;6.72;0.73;;;18.80;99.90;;;;;;5007421;28;20390;-82
2021/08/08 09:05:35;;;;;;;9.70;0.80;;;19.20;99.90;;;;;;5007347;28;20034;-81
2021/08/08 09:08:02;;;;;;;5.75;0.52;;;19.20;99.90;;;;;;5006993;28;20026;-83
2021/08/08 09:10:27;;;;;;;3.90;0.68;;;20.00;99.90;;;;;;5023846;28;20045;-86
2021/08/08 09:13:01;;;;;;;8.73;0.80;;;19.90;99.90;;;;;;5007057;28;20056;-86
2021/08/08 09:15:37;;;;;;;5.22;0.60;;;19.60;99.90;;;;;;5006351;28;20053;-82
2021/08/08 09:18:11;;;;;;;8.07;0.90;;;19.30;99.90;;;;;;5022260;28;20033;-81
2021/08/08 09:20:40;;;;;;;8.45;0.80;;;19.20;99.90;;;;;;5007286;28;20069;-80
2021/08/08 09:23:06;;;;;;;9.27;0.70;;;18.80;99.90;;;;;;5023339;28;20034;-82
2021/08/08 09:25:31;;;;;;;5.32;0.50;;;18.60;99.90;;;;;;5025016;28;20132;-82
2021/08/08 09:28:09;;;;;;;4.72;0.50;;;18.80;99.90;;;;;;5005946;28;20061;-83
2021/08/08 09:30:38;;;;;;;4.95;0.60;;;19.30;99.90;;;;;;5007431;28;20030;-82
2021/08/08 09:33:07;;;;;;;8.32;1.00;;;19.40;99.90;;;;;;5007589;28;20041;-82
2021/08/08 09:35:41;;;;;;;5.15;0.60;;;19.40;99.90;;;;;;5007435;28;20030;-80
2021/08/08 09:38:10;;;;;;;4.78;0.60;;;19.40;99.90;;;;;;5023574;28;20034;-83
2021/08/08 09:40:40;;;;;;;7.88;0.60;;;19.40;99.90;;;;;;5007546;28;20045;-83
2021/08/08 09:43:06;;;;;;;;;;;19.50;99.90;;;;;;5025941;28;20033;-85
2021/08/08 09:45:44;;;;;;;2.45;0.50;;;20.10;99.90;;;;;;5011290;28;19971;-84
2021/08/08 09:48:11;;;;;;;8.02;0.60;;;21.00;99.90;;;;;;5009958;28;20172;-83
2021/08/08 09:50:42;;;;;;;7.53;0.60;;;20.50;99.90;;;;;;5007252;28;20034;-83
2021/08/08 09:53:20;;;;;;;7.82;0.85;;;20.20;99.90;;;;;;5020517;28;20106;-82
2021/08/08 09:55:46;;;;;;;3.33;0.85;;;20.60;99.90;;;;;;5010540;28;20065;-82
2021/08/08 09:58:22;;;;;;;4.78;0.40;;;21.50;99.90;;;;;;5009267;28;20040;-82
2021/08/08 10:00:50;;;;;;;6.18;0.75;;;22.00;99.90;;;;;;5028416;28;20156;-83
2021/08/08 10:03:17;;;;;;;5.32;0.65;;;22.30;99.90;;;;;;5027318;28;20034;-83
2021/08/08 10:05:45;;;;;;;4.47;0.60;;;22.30;99.90;;;;;;5026981;28;20026;-81
2021/08/08 10:08:13;;;;;;;5.97;0.68;;;20.40;99.90;;;;;;5010261;28;20048;-82
2021/08/08 10:10:41;;;;;;;4.45;0.40;;;20.50;99.90;;;;;;5026996;28;20030;-82
2021/08/08 10:13:16;;;;;;;3.67;0.40;;;21.30;99.90;;;;;;5010768;28;20035;-84
2021/08/08 10:15:46;;;;;;;4.18;0.60;;;21.10;99.90;;;;;;5010860;28;20481;-86
2021/08/08 10:18:14;;;;;;;4.22;0.70;;;20.90;99.90;;;;;;5026877;28;20038;-85
2021/08/08 10:20:40;;;;;;;6.15;0.90;;;20.70;99.90;;;;;;5009649;28;20038;-82
2021/08/08 10:23:10;;;;;;;6.15;0.47;;;19.60;99.90;;;;;;5011847;28;20122;-84
2021/08/08 10:25:37;;;;;;;5.90;0.50;;;19.90;99.90;;;;;;5005272;28;20033;-84
2021/08/08 10:28:05;;;;;;;5.80;0.63;;;19.70;99.90;;;;;;5018531;28;20102;-83
2021/08/08 10:30:33;;;;;;;4.15;0.95;;;20.20;99.90;;;;;;5008752;28;20091;-82
2021/08/08 10:33:04;;;;;;;2.15;0.40;;;20.60;99.90;;;;;;5026582;28;20030;-80
2021/08/08 10:35:44;;;;;;;3.20;0.50;;;21.10;99.90;;;;;;5026429;28;20022;-80
2021/08/08 10:38:11;;;;;;;6.25;0.50;;;20.50;99.90;;;;;;5025912;28;20072;-80
2021/08/08 10:40:39;;;;;;;5.22;0.68;;;20.50;99.90;;;;;;5025820;28;20426;-80
2021/08/08 10:43:06;;;;;;;6.50;0.50;;;20.30;99.90;;;;;;5011057;28;20053;-81
2021/08/08 10:45:38;;;;;;;3.08;0.50;;;20.10;99.90;;;;;;5007824;28;20506;-82
2021/08/08 10:48:06;;;;;;;3.47;0.40;;;20.00;99.90;;;;;;5006188;28;20485;-83
2021/08/08 10:50:45;;;;;;;5.13;0.40;;;20.30;99.90;;;;;;4990319;28;20106;-80
2021/08/08 10:53:25;;;;;;;2.40;0.40;;;20.50;99.90;;;;;;5007441;28;20046;-82
2021/08/08 10:56:06;;;;;;;8.82;0.85;;;20.50;99.90;;;;;;4989932;28;20058;-79
2021/08/08 10:58:36;;;;;;;4.45;0.50;;;19.60;99.90;;;;;;5006373;28;20081;-82
2021/08/08 11:01:17;;;;;;;6.00;0.57;;;19.30;99.90;;;;;;5007603;28;20042;-84
2021/08/08 11:03:52;;;;;;;3.58;0.50;;;19.80;99.90;;;;;;5007618;28;20027;-80
2021/08/08 11:06:27;;;;;;;7.30;0.52;;;19.40;99.90;;;;;;4989889;28;20038;-82
2021/08/08 11:08:55;;;;;;;4.15;0.40;;;19.40;99.90;;;;;;5006090;28;20134;-82
2021/08/08 11:11:23;;;;;;;6.13;0.63;;;19.90;99.90;;;;;;4989854;28;20054;-82
2021/08/08 11:13:48;;;;;;;3.78;0.50;;;19.70;99.90;;;;;;4989754;28;20121;-79
2021/08/08 11:16:14;;;;;;;2.45;0.40;;;19.40;99.90;;;;;;5011402;28;20135;-80
2021/08/08 11:18:40;;;;;;;3.65;0.50;;;19.60;99.90;;;;;;5025259;28;20038;-80
2021/08/08 11:21:13;;;;;;;5.32;0.50;;;20.00;99.90;;;;;;5025847;28;20135;-80
2021/08/08 11:23:39;;;;;;;4.25;0.57;;;19.80;99.90;;;;;;5009220;28;20030;-81
2021/08/08 11:26:05;;;;;;;6.13;0.40;;;19.90;99.90;;;;;;5009002;28;20034;-82
2021/08/08 11:28:30;;;;;;;5.40;0.80;;;20.20;99.90;;;;;;5022407;28;20105;-80
2021/08/08 11:30:56;;;;;;;5.57;0.60;;;19.60;99.90;;;;;;5025239;28;20041;-81
2021/08/08 11:33:25;;;;;;;6.20;0.50;;;19.90;99.90;;;;;;5025486;28;20037;-82
2021/08/08 11:36:00;;;;;;;5.05;0.40;;;20.20;99.90;;;;;;5008997;28;20044;-82
2021/08/08 11:38:30;;;;;;;3.80;0.43;;;20.80;99.90;;;;;;5025282;28;20034;-82
2021/08/08 11:40:55;;;;;;;3.70;0.50;;;21.00;99.90;;;;;;5025184;28;20041;-84
2021/08/08 11:43:29;;;;;;;4.40;0.40;;;20.90;99.90;;;;;;5024184;28;20153;-82
2021/08/08 11:45:58;;;;;;;3.60;0.45;;;20.60;99.90;;;;;;5033656;28;20034;-83
2021/08/08 11:48:29;;;;;;;4.15;0.40;;;20.70;99.90;;;;;;5008185;28;20037;-83
2021/08/08 11:50:57;;;;;;;6.43;0.57;;;20.90;99.90;;;;;;5026242;28;20034;-82
2021/08/08 11:53:34;;;;;;;5.38;0.50;;;20.70;99.90;;;;;;5024870;28;20056;-81
2021/08/08 11:56:17;;;;;;;3.42;0.40;;;20.60;99.90;;;;;;5024316;28;20061;-82
2021/08/08 11:58:52;;;;;;;3.58;0.50;;;20.90;99.90;;;;;;5025746;28;20069;-80
2021/08/08 12:01:23;;;;;;;3.17;0.38;;;20.00;99.90;;;;;;5027589;28;20108;-81
2021/08/08 12:03:49;;;;;;;5.45;0.63;;;20.70;99.90;;;;;;5024811;28;20474;-81
2021/08/08 12:06:19;;;;;;;3.35;0.60;;;20.70;99.90;;;;;;5024006;28;20033;-82
2021/08/08 12:08:44;;;;;;;4.32;0.40;;;20.70;99.90;;;;;;5008094;28;20068;-82
2021/08/08 12:11:10;;;;;;;3.75;0.40;;;20.10;99.90;;;;;;5024293;28;20041;-81
2021/08/08 12:13:35;;;;;;;3.47;0.50;;;20.30;99.90;;;;;;5007967;28;20026;-82
2021/08/08 12:16:13;;;;;;;3.25;0.50;;;20.50;99.90;;;;;;5024652;28;20050;-82
2021/08/08 12:18:39;;;;;;;3.97;0.60;;;20.80;99.90;;;;;;5007841;28;20033;-82
2021/08/08 12:21:14;;;;;;;4.85;0.73;;;21.30;99.90;;;;;;5024233;28;20406;-82
2021/08/08 12:23:40;;;;;;;4.43;0.88;;;21.10;99.90;;;;;;5024405;28;20068;-82
2021/08/08 12:26:05;;;;;;;3.10;0.40;;;20.80;99.90;;;;;;5024210;28;20034;-81
2021/08/08 12:28:31;;;;;;;3.20;0.40;;;21.20;99.90;;;;;;5017129;28;20045;-82
2021/08/08 12:31:17;;;;;;;5.15;0.57;;;21.20;99.90;;;;;;5004626;28;20030;-82
2021/08/08 12:33:45;;;;;;;4.18;0.50;;;20.90;99.90;;;;;;5005314;28;20121;-82
2021/08/08 12:36:13;;;;;;;3.72;0.50;;;20.70;99.90;;;;;;5004570;28;20034;-82
2021/08/08 12:38:49;;;;;;;3.38;0.40;;;20.30;99.90;;;;;;4988156;28;20061;-83
2021/08/08 12:41:29;;;;;;;6.32;0.50;;;19.90;99.90;;;;;;4988258;28;20073;-82
2021/08/08 12:43:59;;;;;;;6.38;0.70;;;19.00;99.90;;;;;;4988510;28;20102;-82
2021/08/08 12:46:32;;;;;;;8.65;0.80;;;17.70;99.90;;;;;;4987975;28;20034;-82
2021/08/08 12:49:00;;;;;;;4.60;0.70;;;17.00;99.90;;;;;;5004254;28;20030;-81
2021/08/08 12:51:26;;;;;;;4.53;0.60;;;16.90;99.90;;;;;;5004289;28;20106;-81